createdAt,value
2017-10-29T00:00:45.370Z,6.75
2017-10-29T00:03:12.822Z,6.85
2017-10-29T00:05:40.290Z,9.57
2017-10-29T00:08:07.772Z,8.15
2017-10-29T00:10:35.990Z,9.65
2017-10-29T00:15:37.165Z,7.95
2017-10-29T00:18:04.615Z,6.30
2017-10-29T00:20:32.059Z,6.03
2017-10-29T00:22:59.505Z,7.82
2017-10-29T00:25:26.983Z,7.35
2017-10-29T00:27:54.429Z,8.95
2017-10-29T00:30:21.886Z,8.73
2017-10-29T00:32:49.344Z,6.90
2017-10-29T00:35:16.796Z,8.02
2017-10-29T00:37:44.247Z,7.32
2017-10-29T00:40:11.714Z,5.80
2017-10-29T00:42:39.173Z,13.80
2017-10-29T00:45:06.650Z,7.25
2017-10-29T00:47:53.062Z,6.05
2017-10-29T00:50:21.290Z,7.90
2017-10-29T00:52:48.754Z,7.90
2017-10-29T00:58:12.837Z,8.93
2017-10-29T01:03:45.015Z,9.35
2017-10-29T01:06:12.458Z,3.95
2017-10-29T01:08:40.662Z,5.05
2017-10-29T01:11:08.101Z,3.97
2017-10-29T01:13:41.789Z,5.60
2017-10-29T01:16:09.265Z,3.50
2017-10-29T01:18:37.468Z,4.05
2017-10-29T01:21:04.940Z,2.87
2017-10-29T01:23:32.378Z,8.98
2017-10-29T01:25:59.825Z,5.30
2017-10-29T01:28:27.261Z,2.92
2017-10-29T01:30:54.732Z,4.43
2017-10-29T01:33:22.953Z,4.35
2017-10-29T01:35:50.413Z,7.12
2017-10-29T01:38:17.865Z,4.15
2017-10-29T01:40:45.308Z,3.78
2017-10-29T01:43:12.756Z,2.70
2017-10-29T01:45:40.964Z,5.70
2017-10-29T01:48:08.420Z,2.58
2017-10-29T01:50:35.869Z,4.25
2017-10-29T01:53:03.368Z,4.25
2017-10-29T01:55:30.819Z,3.83
2017-10-29T01:57:58.274Z,2.92
2017-10-29T02:00:26.269Z,4.65
2017-10-29T02:02:53.733Z,4.45
2017-10-29T02:05:21.172Z,4.30
2017-10-29T02:07:48.629Z,2.97
2017-10-29T02:10:16.067Z,4.28
2017-10-29T02:12:43.526Z,4.75
2017-10-29T02:15:10.976Z,2.47
2017-10-29T02:17:39.195Z,2.85
2017-10-29T02:20:06.640Z,3.42
2017-10-29T02:22:34.094Z,3.45
2017-10-29T02:25:01.542Z,3.33
2017-10-29T02:27:29.008Z,7.55
2017-10-29T02:29:56.459Z,3.50
2017-10-29T02:32:23.912Z,4.25
2017-10-29T02:37:29.694Z,2.60
2017-10-29T02:39:57.158Z,4.32
2017-10-29T02:42:24.630Z,3.28
2017-10-29T02:44:52.083Z,5.45
2017-10-29T02:47:19.520Z,2.60
2017-10-29T02:52:49.438Z,2.87
2017-10-29T02:55:16.888Z,1.87
2017-10-29T03:00:47.340Z,6.20
2017-10-29T03:03:14.799Z,2.08
2017-10-29T03:05:42.245Z,1.67
2017-10-29T03:11:06.239Z,3.45
2017-10-29T03:13:33.729Z,2.05
2017-10-29T03:16:01.181Z,1.83
2017-10-29T03:18:28.638Z,3.12
2017-10-29T03:20:56.085Z,8.82
2017-10-29T03:23:23.533Z,4.55
2017-10-29T03:25:50.995Z,2.55
2017-10-29T03:31:14.805Z,2.00
2017-10-29T03:33:42.258Z,4.35
2017-10-29T03:36:09.716Z,3.40
2017-10-29T03:38:37.160Z,3.45
2017-10-29T03:41:04.629Z,11.02
2017-10-29T03:43:32.073Z,1.40
2017-10-29T03:48:52.378Z,1.60
2017-10-29T03:51:19.826Z,2.75
2017-10-29T03:53:47.266Z,1.65
2017-10-29T03:56:14.753Z,1.50
2017-10-29T03:58:42.226Z,1.67
2017-10-29T04:04:10.162Z,2.95
2017-10-29T04:06:37.629Z,1.45
2017-10-29T04:09:05.092Z,1.95
2017-10-29T04:11:32.579Z,3.15
2017-10-29T04:14:00.027Z,1.60
2017-10-29T04:16:27.478Z,1.50
2017-10-29T04:18:54.923Z,3.60
2017-10-29T04:21:22.434Z,2.72
2017-10-29T04:26:52.721Z,1.67
2017-10-29T04:29:21.701Z,1.50
2017-10-29T04:31:49.179Z,1.45
2017-10-29T04:34:16.629Z,1.40
2017-10-29T04:36:44.083Z,1.30
2017-10-29T04:39:11.568Z,1.83
2017-10-29T04:41:39.789Z,1.30
2017-10-29T04:47:10.885Z,1.20
2017-10-29T04:49:38.322Z,1.20
2017-10-29T04:52:05.769Z,2.50
2017-10-29T04:54:34.006Z,2.95
2017-10-29T04:57:01.459Z,1.85
2017-10-29T04:59:28.923Z,4.05
2017-10-29T05:01:56.381Z,1.40
2017-10-29T05:04:23.856Z,2.97
2017-10-29T05:06:51.305Z,1.75
2017-10-29T05:09:25.293Z,4.37
2017-10-29T05:11:52.806Z,2.50
2017-10-29T05:14:20.254Z,2.97
2017-10-29T05:16:47.708Z,1.35
2017-10-29T05:19:15.162Z,5.62
2017-10-29T05:21:42.605Z,1.20
2017-10-29T05:24:24.433Z,1.42
2017-10-29T05:26:51.936Z,2.85
2017-10-29T05:32:21.866Z,4.32
2017-10-29T05:37:53.658Z,4.72
2017-10-29T05:43:23.319Z,1.52
2017-10-29T05:45:50.769Z,3.25
2017-10-29T05:48:24.300Z,1.52
2017-10-29T05:50:51.757Z,1.30
2017-10-29T05:56:22.560Z,1.60
2017-10-29T05:58:50.027Z,1.70
2017-10-29T06:01:17.478Z,1.80
2017-10-29T06:03:44.947Z,1.52
2017-10-29T06:09:08.574Z,1.27
2017-10-29T06:11:37.486Z,3.58
2017-10-29T06:14:05.735Z,2.10
2017-10-29T06:16:33.180Z,7.95
2017-10-29T06:19:00.678Z,1.20
2017-10-29T06:21:28.894Z,1.30
2017-10-29T06:23:56.347Z,2.05
2017-10-29T06:26:23.803Z,1.75
2017-10-29T06:28:51.232Z,1.40
2017-10-29T06:31:18.671Z,1.20
2017-10-29T06:33:46.108Z,1.48
2017-10-29T06:36:14.309Z,1.48
2017-10-29T06:38:41.761Z,1.60
2017-10-29T06:41:09.196Z,1.90
2017-10-29T06:43:37.400Z,1.62
2017-10-29T06:46:07.381Z,3.72
2017-10-29T06:48:34.868Z,1.83
2017-10-29T06:51:03.082Z,1.40
2017-10-29T06:53:30.516Z,2.87
2017-10-29T06:55:57.962Z,4.60
2017-10-29T06:58:25.401Z,1.42
2017-10-29T07:00:52.845Z,4.75
2017-10-29T07:03:20.283Z,1.50
2017-10-29T07:05:47.723Z,1.77
2017-10-29T07:08:15.924Z,2.75
2017-10-29T07:10:43.376Z,4.22
2017-10-29T07:13:10.824Z,2.10
2017-10-29T07:15:38.707Z,1.95
2017-10-29T07:18:06.905Z,1.50
2017-10-29T07:20:34.372Z,1.55
2017-10-29T07:23:01.822Z,1.15
2017-10-29T07:25:29.258Z,2.78
2017-10-29T07:27:57.462Z,2.15
2017-10-29T07:30:25.152Z,1.40
2017-10-29T07:32:52.579Z,1.40
2017-10-29T07:35:20.022Z,1.73
2017-10-29T07:37:47.457Z,1.77
2017-10-29T07:40:14.952Z,7.12
2017-10-29T07:42:42.401Z,4.87
2017-10-29T07:45:09.855Z,1.77
2017-10-29T07:47:43.600Z,3.47
2017-10-29T07:50:11.075Z,1.45
2017-10-29T07:52:39.296Z,10.65
2017-10-29T07:55:06.744Z,2.37
2017-10-29T07:57:34.196Z,1.92
2017-10-29T08:00:01.649Z,3.47
2017-10-29T08:02:29.095Z,1.70
2017-10-29T08:04:57.312Z,1.48
2017-10-29T08:07:24.775Z,1.55
2017-10-29T08:09:52.221Z,3.65
2017-10-29T08:12:19.673Z,1.90
2017-10-29T08:14:47.120Z,1.30
2017-10-29T08:17:15.335Z,2.95
2017-10-29T08:19:42.784Z,2.45
2017-10-29T08:22:10.263Z,2.33
2017-10-29T08:24:37.700Z,6.03
2017-10-29T08:27:05.143Z,2.85
2017-10-29T08:29:32.596Z,1.95
2017-10-29T08:32:00.819Z,3.00
2017-10-29T08:34:28.265Z,2.55
2017-10-29T08:36:56.468Z,2.33
2017-10-29T08:39:23.904Z,4.68
2017-10-29T08:41:51.345Z,1.65
2017-10-29T08:44:18.793Z,6.32
2017-10-29T08:46:46.232Z,13.25
2017-10-29T08:49:13.677Z,3.50
2017-10-29T08:51:41.134Z,1.87
2017-10-29T08:54:08.561Z,2.47
2017-10-29T08:56:36.008Z,2.65
2017-10-29T08:59:03.444Z,3.35
2017-10-29T09:01:30.890Z,1.40
2017-10-29T09:03:58.332Z,3.28
2017-10-29T09:06:25.792Z,2.58
2017-10-29T09:08:53.240Z,2.97
2017-10-29T09:11:20.711Z,2.30
2017-10-29T09:16:51.023Z,1.90
2017-10-29T09:19:18.452Z,5.30
2017-10-29T09:21:45.892Z,2.00
2017-10-29T09:24:13.338Z,1.48
2017-10-29T09:26:40.780Z,2.42
2017-10-29T09:29:08.236Z,1.58
2017-10-29T09:31:42.555Z,1.50
2017-10-29T09:34:10.752Z,1.42
2017-10-29T09:36:38.202Z,2.42
2017-10-29T09:39:05.638Z,1.20
2017-10-29T09:41:33.072Z,2.37
2017-10-29T09:44:00.505Z,1.27
2017-10-29T09:46:28.712Z,1.20
2017-10-29T09:48:56.149Z,3.47
2017-10-29T09:51:24.364Z,2.95
2017-10-29T09:53:51.796Z,1.25
2017-10-29T09:56:19.243Z,1.80
2017-10-29T09:58:46.682Z,1.20
2017-10-29T10:01:14.119Z,5.82
2017-10-29T10:03:41.551Z,2.22
2017-10-29T10:06:09.758Z,1.30
2017-10-29T10:08:37.482Z,1.40
2017-10-29T10:11:04.966Z,1.50
2017-10-29T10:13:32.404Z,1.50
2017-10-29T10:15:59.853Z,1.37
2017-10-29T10:18:27.294Z,1.55
2017-10-29T10:20:55.487Z,2.53
2017-10-29T10:23:22.967Z,2.20
2017-10-29T10:25:51.157Z,1.62
2017-10-29T10:28:18.600Z,2.37
2017-10-29T10:31:05.146Z,1.20
2017-10-29T10:33:32.588Z,1.85
2017-10-29T10:36:00.792Z,1.85
2017-10-29T10:38:28.235Z,1.40
2017-10-29T10:40:55.686Z,1.33
2017-10-29T10:43:23.124Z,1.80
2017-10-29T10:45:50.574Z,2.65
2017-10-29T10:48:18.018Z,2.58
2017-10-29T10:50:45.449Z,1.50
2017-10-29T10:53:12.909Z,3.17
2017-10-29T10:55:41.115Z,2.00
2017-10-29T10:58:08.552Z,2.67
2017-10-29T11:00:36.750Z,1.40
2017-10-29T11:03:04.192Z,3.12
2017-10-29T11:05:32.398Z,1.73
2017-10-29T11:07:59.841Z,1.80
2017-10-29T11:10:28.064Z,3.45
2017-10-29T11:12:55.510Z,3.08
2017-10-29T11:15:22.928Z,3.62
2017-10-29T11:17:50.367Z,1.65
2017-10-29T11:20:17.799Z,1.40
2017-10-29T11:22:45.268Z,2.10
2017-10-29T11:25:12.705Z,1.60
2017-10-29T11:30:42.965Z,2.15
2017-10-29T11:33:10.423Z,3.47
2017-10-29T11:35:48.390Z,7.78
2017-10-29T11:38:15.885Z,3.97
2017-10-29T11:40:43.343Z,8.07
2017-10-29T11:46:07.680Z,10.48
2017-10-29T11:48:39.989Z,9.65
2017-10-29T11:51:07.413Z,8.68
2017-10-29T11:53:34.854Z,6.28
2017-10-29T11:56:02.288Z,5.30
2017-10-29T11:58:30.489Z,7.68
2017-10-29T12:00:57.924Z,9.27
2017-10-29T12:03:26.119Z,6.90
2017-10-29T12:05:53.554Z,3.00
2017-10-29T12:08:20.987Z,12.77
2017-10-29T12:10:48.433Z,8.98
2017-10-29T12:13:15.867Z,6.25
2017-10-29T12:15:43.314Z,5.37
2017-10-29T12:18:11.518Z,9.60
2017-10-29T12:20:38.964Z,7.07
2017-10-29T12:23:06.403Z,9.88
2017-10-29T12:25:33.832Z,10.57
2017-10-29T12:28:01.268Z,6.65
2017-10-29T12:30:28.704Z,8.52
2017-10-29T12:32:56.148Z,5.62
2017-10-29T12:35:24.346Z,7.12
2017-10-29T12:37:51.776Z,9.98
2017-10-29T12:40:19.972Z,9.75
2017-10-29T12:42:47.448Z,2.83
2017-10-29T12:45:14.884Z,7.85
2017-10-29T12:47:42.328Z,3.87
2017-10-29T12:50:09.769Z,4.00
2017-10-29T12:52:37.205Z,12.00
2017-10-29T12:55:04.651Z,12.10
2017-10-29T12:57:32.083Z,6.12
2017-10-29T13:00:00.277Z,10.90
2017-10-29T13:02:27.713Z,7.60
2017-10-29T13:04:55.140Z,4.87
2017-10-29T13:07:22.584Z,6.72
2017-10-29T13:09:50.034Z,12.48
2017-10-29T13:12:17.483Z,9.80
2017-10-29T13:14:44.936Z,2.50
2017-10-29T13:17:13.153Z,8.45
2017-10-29T13:19:40.603Z,8.27
2017-10-29T13:22:08.059Z,5.40
2017-10-29T13:24:36.248Z,8.57
2017-10-29T13:27:03.684Z,10.55
2017-10-29T13:29:31.130Z,8.45
2017-10-29T13:31:58.588Z,9.52
2017-10-29T13:34:26.016Z,5.18
2017-10-29T13:36:53.480Z,6.28
2017-10-29T13:39:20.923Z,5.03
2017-10-29T13:41:48.368Z,5.32
2017-10-29T13:44:15.816Z,10.10
2017-10-29T13:46:44.029Z,9.13
2017-10-29T13:49:11.471Z,6.87
2017-10-29T13:51:38.908Z,2.65
2017-10-29T13:54:07.118Z,9.05
2017-10-29T13:56:34.576Z,11.18
2017-10-29T13:59:02.024Z,7.37
2017-10-29T14:01:30.231Z,8.13
2017-10-29T14:03:57.674Z,4.90
2017-10-29T14:06:25.880Z,5.12
2017-10-29T14:08:53.330Z,11.65
2017-10-29T14:11:20.769Z,6.30
2017-10-29T14:13:49.004Z,8.70
2017-10-29T14:19:12.986Z,6.20
2017-10-29T14:21:40.437Z,7.80
2017-10-29T14:24:07.911Z,11.52
2017-10-29T14:26:35.349Z,15.75
2017-10-29T14:29:02.792Z,6.10
2017-10-29T14:31:30.243Z,11.27
2017-10-29T14:33:57.692Z,12.23
2017-10-29T14:36:25.922Z,12.30
2017-10-29T14:38:53.361Z,11.70
2017-10-29T14:41:20.821Z,10.95
2017-10-29T14:43:48.264Z,9.25
2017-10-29T14:46:15.720Z,13.18
2017-10-29T14:48:43.173Z,13.60
2017-10-29T14:51:17.419Z,8.18
2017-10-29T14:53:45.642Z,16.55
2017-10-29T14:56:13.104Z,10.57
2017-10-29T14:58:40.573Z,6.32
2017-10-29T15:01:08.042Z,12.80
2017-10-29T15:03:35.467Z,11.70
2017-10-29T15:06:02.902Z,9.73
2017-10-29T15:08:30.336Z,9.90
2017-10-29T15:10:57.797Z,11.30
2017-10-29T15:13:26.001Z,17.00
2017-10-29T15:15:53.469Z,12.55
2017-10-29T15:18:20.903Z,10.27
2017-10-29T15:20:49.105Z,16.37
2017-10-29T15:23:16.548Z,10.82
2017-10-29T15:25:44.752Z,16.70
2017-10-29T15:28:12.195Z,10.95
2017-10-29T15:30:40.398Z,12.00
2017-10-29T15:33:07.831Z,9.63
2017-10-29T15:35:36.036Z,18.12
2017-10-29T15:38:03.484Z,18.25
2017-10-29T15:40:30.928Z,22.73
2017-10-29T15:42:59.141Z,14.85
2017-10-29T15:45:26.576Z,11.15
2017-10-29T15:47:54.780Z,10.30
2017-10-29T15:50:22.241Z,11.10
2017-10-29T15:52:49.681Z,12.82
2017-10-29T15:55:17.132Z,13.18
2017-10-29T15:57:44.573Z,11.93
2017-10-29T16:00:12.019Z,14.52
2017-10-29T16:02:39.457Z,12.43
2017-10-29T16:05:06.913Z,18.37
2017-10-29T16:07:35.126Z,18.10
2017-10-29T16:10:02.565Z,12.32
2017-10-29T16:12:30.016Z,22.42
2017-10-29T16:14:58.234Z,11.60
2017-10-29T16:17:25.677Z,11.02
2017-10-29T16:19:53.115Z,9.40
2017-10-29T16:22:21.317Z,11.27
2017-10-29T16:24:48.767Z,13.55
2017-10-29T16:27:16.956Z,9.50
2017-10-29T16:29:44.396Z,23.58
2017-10-29T16:32:11.851Z,13.93
2017-10-29T16:34:40.065Z,14.80
2017-10-29T16:37:26.691Z,19.77
2017-10-29T16:39:54.924Z,13.62
2017-10-29T16:42:22.407Z,11.02
2017-10-29T16:44:49.888Z,9.00
2017-10-29T16:47:18.110Z,20.05
2017-10-29T16:49:45.570Z,15.88
2017-10-29T16:52:13.028Z,27.42
2017-10-29T16:54:45.006Z,16.92
2017-10-29T16:57:12.457Z,21.00
2017-10-29T16:59:39.926Z,17.30
2017-10-29T17:02:07.392Z,18.83
2017-10-29T17:04:34.859Z,12.10
2017-10-29T17:07:03.096Z,15.55
2017-10-29T17:09:30.573Z,11.88
2017-10-29T17:11:58.034Z,20.70
2017-10-29T17:14:25.496Z,17.27
2017-10-29T17:19:56.050Z,22.73
2017-10-29T17:22:29.353Z,20.12
2017-10-29T17:24:56.833Z,15.27
2017-10-29T17:27:24.296Z,10.65
2017-10-29T17:29:52.546Z,13.13
2017-10-29T17:32:19.995Z,13.73
2017-10-29T17:34:47.431Z,15.52
2017-10-29T17:37:14.864Z,14.23
2017-10-29T17:39:47.944Z,13.73
2017-10-29T17:42:15.425Z,24.23
2017-10-29T17:44:42.863Z,17.10
2017-10-29T17:47:11.072Z,16.90
2017-10-29T17:52:57.573Z,16.55
2017-10-29T17:55:25.031Z,19.62
2017-10-29T17:57:53.249Z,18.90
2017-10-29T18:00:20.694Z,14.55
2017-10-29T18:02:48.167Z,17.62
2017-10-29T18:05:15.605Z,23.50
2017-10-29T18:07:43.090Z,14.87
2017-10-29T18:10:10.541Z,17.73
2017-10-29T18:12:38.001Z,11.80
2017-10-29T18:15:05.468Z,22.02
2017-10-29T18:17:32.934Z,23.52
2017-10-29T18:20:00.377Z,13.65
2017-10-29T18:22:27.827Z,20.65
2017-10-29T18:24:55.276Z,15.20
2017-10-29T18:27:22.736Z,20.30
2017-10-29T18:29:50.243Z,11.75
2017-10-29T18:32:18.464Z,28.35
2017-10-29T18:34:45.915Z,14.15
2017-10-29T18:37:13.369Z,13.88
2017-10-29T18:39:40.845Z,12.73
2017-10-29T18:42:08.303Z,12.00
2017-10-29T18:44:35.742Z,10.40
2017-10-29T18:47:03.223Z,19.85
2017-10-29T18:49:30.670Z,11.07
2017-10-29T18:51:58.121Z,15.82
2017-10-29T18:54:25.574Z,11.18
2017-10-29T18:56:53.022Z,12.05
2017-10-29T18:59:20.481Z,13.43
2017-10-29T19:01:47.934Z,14.13
2017-10-29T19:04:15.392Z,16.83
2017-10-29T19:06:42.846Z,18.15
2017-10-29T19:09:11.029Z,12.90
2017-10-29T19:11:38.513Z,6.97
2017-10-29T19:14:05.982Z,19.17
2017-10-29T19:16:33.439Z,12.95
2017-10-29T19:19:00.890Z,14.45
2017-10-29T19:21:28.333Z,15.70
2017-10-29T19:23:55.795Z,16.17
2017-10-29T19:26:23.241Z,11.50
2017-10-29T19:28:50.702Z,14.60
2017-10-29T19:31:18.162Z,19.62
2017-10-29T19:33:45.623Z,14.50
2017-10-29T19:36:13.091Z,18.70
2017-10-29T19:38:40.547Z,17.50
2017-10-29T19:41:08.005Z,15.07
2017-10-29T19:43:35.462Z,15.38
2017-10-29T19:46:02.907Z,23.60
2017-10-29T19:48:30.366Z,13.85
2017-10-29T19:50:57.809Z,12.32
2017-10-29T19:53:25.273Z,14.18
2017-10-29T19:55:52.734Z,5.53
2017-10-29T19:58:20.185Z,4.35
2017-10-29T20:00:47.633Z,10.93
2017-10-29T20:03:15.083Z,15.55
2017-10-29T20:05:42.542Z,17.23
2017-10-29T20:08:09.972Z,16.23
2017-10-29T20:10:37.423Z,10.05
2017-10-29T20:13:04.868Z,14.02
2017-10-29T20:15:32.308Z,15.90
2017-10-29T20:17:59.755Z,12.23
2017-10-29T20:20:27.975Z,22.02
2017-10-29T20:22:55.417Z,12.68
2017-10-29T20:25:22.855Z,6.82
2017-10-29T20:27:51.062Z,12.23
2017-10-29T20:30:18.503Z,21.37
2017-10-29T20:32:45.941Z,12.98
2017-10-29T20:35:13.375Z,21.45
2017-10-29T20:37:40.813Z,12.32
2017-10-29T20:40:08.251Z,13.65
2017-10-29T20:42:35.684Z,14.43
2017-10-29T20:45:03.886Z,8.50
2017-10-29T20:47:31.328Z,11.50
2017-10-29T20:49:59.538Z,11.80
2017-10-29T20:52:26.977Z,11.48
2017-10-29T20:54:55.180Z,13.77
2017-10-29T20:57:22.630Z,8.68
2017-10-29T20:59:50.092Z,12.07
2017-10-29T21:02:18.322Z,11.27
2017-10-29T21:04:45.759Z,19.12
2017-10-29T21:07:14.021Z,10.27
2017-10-29T21:09:44.475Z,17.77
2017-10-29T21:12:11.922Z,12.25
2017-10-29T21:14:46.492Z,10.60
2017-10-29T21:17:13.936Z,15.23
2017-10-29T21:19:41.368Z,17.30
2017-10-29T21:22:09.587Z,11.57
2017-10-29T21:24:37.791Z,10.75
2017-10-29T21:27:05.229Z,10.43
2017-10-29T21:29:33.436Z,14.63
2017-10-29T21:32:01.649Z,15.90
2017-10-29T21:34:29.079Z,6.68
2017-10-29T21:36:56.536Z,10.88
2017-10-29T21:39:23.982Z,10.30
2017-10-29T21:41:51.418Z,8.50
2017-10-29T21:44:18.852Z,15.25
2017-10-29T21:46:46.301Z,11.10
2017-10-29T21:49:13.755Z,10.15
2017-10-29T21:51:41.186Z,12.18
2017-10-29T21:54:09.405Z,13.13
2017-10-29T21:56:36.847Z,10.88
2017-10-29T21:59:04.297Z,13.50
2017-10-29T22:01:31.743Z,12.40
2017-10-29T22:03:59.968Z,19.98
2017-10-29T22:06:27.407Z,14.90
2017-10-29T22:08:54.865Z,15.77
2017-10-29T22:11:23.083Z,17.00
2017-10-29T22:13:51.291Z,14.50
2017-10-29T22:16:19.503Z,15.93
2017-10-29T22:18:46.941Z,9.63
2017-10-29T22:21:15.148Z,11.90
2017-10-29T22:23:42.585Z,9.90
2017-10-29T22:26:10.075Z,15.40
2017-10-29T22:28:38.303Z,13.35
2017-10-29T22:31:05.760Z,13.82
2017-10-29T22:33:33.209Z,9.77
2017-10-29T22:36:01.407Z,13.02
2017-10-29T22:38:28.857Z,15.50
2017-10-29T22:40:57.052Z,15.80
2017-10-29T22:43:24.487Z,16.65
2017-10-29T22:45:51.934Z,14.95
2017-10-29T22:48:19.372Z,15.65
2017-10-29T22:50:46.809Z,11.60
2017-10-29T22:53:15.016Z,12.95
2017-10-29T22:55:42.453Z,10.07
2017-10-29T22:58:09.898Z,11.27
2017-10-29T23:00:37.337Z,13.13
2017-10-29T23:03:04.772Z,16.08
2017-10-29T23:05:44.055Z,14.40
2017-10-29T23:11:13.953Z,11.10
2017-10-29T23:16:37.413Z,22.60
2017-10-29T23:21:57.888Z,19.35
2017-10-29T23:24:25.312Z,14.50
2017-10-29T23:26:52.761Z,13.38
2017-10-29T23:29:20.980Z,16.52
2017-10-29T23:31:48.436Z,22.23
2017-10-29T23:37:13.320Z,6.82
2017-10-29T23:39:40.767Z,20.30
2017-10-29T23:42:08.213Z,16.85
2017-10-29T23:44:35.658Z,10.82
2017-10-29T23:47:03.867Z,14.50
2017-10-29T23:49:31.325Z,16.73
2017-10-29T23:51:58.784Z,17.75
2017-10-29T23:54:26.255Z,13.80
2017-10-29T23:56:53.693Z,12.95
2017-10-29T23:59:21.129Z,25.35
